createdAt,value
2023-02-14T00:01:51.812Z,14.47
2023-02-14T00:04:38.564Z,16.00
2023-02-14T00:07:25.104Z,14.53
2023-02-14T00:10:12.422Z,24.13
2023-02-14T00:12:58.706Z,17.90
2023-02-14T00:15:46.524Z,18.13
2023-02-14T00:18:50.395Z,15.77
2023-02-14T00:21:38.719Z,13.43
2023-02-14T00:24:27.111Z,12.23
2023-02-14T00:27:13.691Z,12.33
2023-02-14T00:30:02.708Z,13.77
2023-02-14T00:32:50.615Z,16.60
2023-02-14T00:35:38.847Z,15.43
2023-02-14T00:38:25.627Z,11.87
2023-02-14T00:41:19.292Z,14.27
2023-02-14T00:44:06.794Z,11.43
2023-02-14T00:46:53.508Z,14.50
2023-02-14T00:49:44.574Z,14.60
2023-02-14T00:52:31.812Z,12.27
2023-02-14T00:55:18.704Z,16.00
2023-02-14T00:58:06.744Z,12.00
2023-02-14T01:00:53.777Z,13.63
2023-02-14T01:03:40.834Z,11.33
2023-02-14T01:06:28.875Z,12.23
2023-02-14T01:09:16.342Z,11.93
2023-02-14T01:12:03.187Z,14.37
2023-02-14T01:14:49.959Z,11.83
2023-02-14T01:17:39.233Z,16.17
2023-02-14T01:20:26.158Z,12.30
2023-02-14T01:23:14.272Z,12.03
2023-02-14T01:26:06.024Z,11.77
2023-02-14T01:28:53.565Z,11.23
2023-02-14T01:31:40.219Z,10.20
2023-02-14T01:34:26.854Z,11.10
2023-02-14T01:37:13.727Z,14.47
2023-02-14T01:40:03.009Z,13.23
2023-02-14T01:42:49.789Z,10.50
2023-02-14T01:45:36.627Z,11.77
2023-02-14T01:48:24.926Z,13.80
2023-02-14T01:51:11.791Z,17.87
2023-02-14T01:54:00.217Z,13.70
2023-02-14T01:56:52.740Z,12.07
2023-02-14T01:59:47.496Z,11.60
2023-02-14T02:02:34.363Z,12.20
2023-02-14T02:05:23.936Z,10.53
2023-02-14T02:08:10.669Z,11.20
2023-02-14T02:10:57.290Z,14.63
2023-02-14T02:13:45.312Z,10.67
2023-02-14T02:16:49.221Z,12.70
2023-02-14T02:20:15.359Z,10.90
2023-02-14T02:23:51.319Z,12.13
2023-02-14T02:27:08.384Z,13.73
2023-02-14T02:30:37.827Z,11.50
2023-02-14T02:34:01.961Z,15.50
2023-02-14T02:37:17.449Z,11.30
2023-02-14T02:40:23.476Z,10.10
2023-02-14T02:43:22.016Z,11.57
2023-02-14T02:46:34.483Z,16.13
2023-02-14T02:50:10.179Z,12.10
2023-02-14T02:53:07.027Z,12.03
2023-02-14T02:56:18.420Z,17.97
2023-02-14T02:59:18.494Z,9.37
2023-02-14T03:02:14.877Z,12.30
2023-02-14T03:05:05.659Z,13.20
2023-02-14T03:07:52.256Z,17.07
2023-02-14T03:10:40.752Z,12.07
2023-02-14T03:13:54.349Z,9.07
2023-02-14T03:16:54.849Z,9.83
2023-02-14T03:20:11.855Z,13.20
2023-02-14T03:23:05.671Z,9.30
2023-02-14T03:26:08.067Z,10.50
2023-02-14T03:29:03.930Z,14.13
2023-02-14T03:31:59.542Z,11.63
2023-02-14T03:34:55.280Z,8.50
2023-02-14T03:37:49.011Z,8.53
2023-02-14T03:40:40.236Z,11.23
2023-02-14T03:43:32.869Z,10.00
2023-02-14T03:46:25.585Z,11.93
2023-02-14T03:49:18.752Z,8.30
2023-02-14T03:52:08.529Z,9.17
2023-02-14T03:54:59.258Z,12.90
2023-02-14T03:57:54.145Z,10.90
2023-02-14T04:00:43.731Z,9.80
2023-02-14T04:03:33.426Z,12.53
2023-02-14T04:06:21.087Z,8.93
2023-02-14T04:09:07.738Z,12.07
2023-02-14T04:11:54.593Z,14.87
2023-02-14T04:14:41.473Z,14.20
2023-02-14T04:17:46.660Z,12.10
2023-02-14T04:20:34.261Z,10.97
2023-02-14T04:23:20.930Z,12.43
2023-02-14T04:26:08.104Z,11.03
2023-02-14T04:28:54.758Z,10.50
2023-02-14T04:31:42.237Z,16.07
2023-02-14T04:34:30.046Z,18.17
2023-02-14T04:37:19.640Z,13.93
2023-02-14T04:40:07.355Z,14.07
2023-02-14T04:42:54.260Z,15.17
2023-02-14T04:45:40.831Z,12.77
2023-02-14T04:48:27.618Z,9.97
2023-02-14T04:51:15.873Z,8.70
2023-02-14T04:54:02.740Z,11.90
2023-02-14T04:56:49.657Z,10.73
2023-02-14T04:59:36.408Z,9.57
2023-02-14T05:02:23.273Z,13.73
2023-02-14T05:05:09.974Z,10.67
2023-02-14T05:07:58.140Z,13.17
2023-02-14T05:10:45.252Z,11.43
2023-02-14T05:13:32.166Z,15.27
2023-02-14T05:16:19.115Z,11.47
2023-02-14T05:19:05.838Z,9.37
2023-02-14T05:21:52.725Z,14.87
2023-02-14T05:24:40.790Z,16.43
2023-02-14T05:27:27.467Z,11.03
2023-02-14T05:30:15.329Z,11.63
2023-02-14T05:33:02.555Z,19.13
2023-02-14T05:35:49.705Z,9.20
2023-02-14T05:38:36.738Z,13.80
2023-02-14T05:41:24.799Z,16.83
2023-02-14T05:44:11.546Z,13.57
2023-02-14T05:46:58.282Z,12.10
2023-02-14T05:49:44.971Z,11.83
2023-02-14T05:52:31.706Z,13.57
2023-02-14T05:55:18.622Z,15.53
2023-02-14T05:58:07.581Z,15.77
2023-02-14T06:00:54.008Z,12.87
2023-02-14T06:03:40.826Z,18.83
2023-02-14T06:06:27.850Z,17.60
2023-02-14T06:09:15.003Z,14.27
2023-02-14T06:12:01.855Z,18.33
2023-02-14T06:14:50.040Z,15.00
2023-02-14T06:17:36.908Z,14.33
2023-02-14T06:20:25.292Z,22.47
2023-02-14T06:23:11.787Z,16.10
2023-02-14T06:25:58.862Z,16.63
2023-02-14T06:28:45.352Z,13.20
2023-02-14T06:31:33.738Z,15.57
2023-02-14T06:34:20.647Z,21.53
2023-02-14T06:37:07.447Z,11.53
2023-02-14T06:39:54.172Z,14.40
2023-02-14T06:42:41.119Z,16.27
2023-02-14T06:45:27.825Z,15.93
2023-02-14T06:48:15.974Z,18.90
2023-02-14T06:51:03.196Z,14.90
2023-02-14T06:53:49.784Z,16.93
2023-02-14T06:56:36.552Z,14.03
2023-02-14T06:59:23.325Z,17.50
2023-02-14T07:02:15.358Z,13.73
2023-02-14T07:05:03.838Z,16.40
2023-02-14T07:07:50.846Z,17.60
2023-02-14T07:10:37.264Z,20.57
2023-02-14T07:13:24.428Z,18.17
2023-02-14T07:16:10.963Z,14.47
2023-02-14T07:18:57.686Z,23.67
2023-02-14T07:21:45.830Z,16.33
2023-02-14T07:24:32.625Z,14.00
2023-02-14T07:27:19.374Z,19.27
2023-02-14T07:30:07.559Z,20.90
2023-02-14T07:32:54.040Z,23.43
2023-02-14T07:35:40.910Z,17.10
2023-02-14T07:38:30.625Z,19.37
2023-02-14T07:41:17.499Z,29.70
2023-02-14T07:44:04.192Z,19.67
2023-02-14T07:46:51.070Z,25.37
2023-02-14T07:49:38.228Z,22.53
2023-02-14T07:52:25.199Z,19.43
2023-02-14T07:55:13.396Z,28.03
2023-02-14T07:58:00.150Z,22.97
2023-02-14T08:00:47.626Z,26.03
2023-02-14T08:03:34.465Z,21.50
2023-02-14T08:06:21.692Z,27.93
2023-02-14T08:09:12.177Z,20.97
2023-02-14T08:12:17.809Z,23.33
2023-02-14T08:15:24.237Z,18.70
2023-02-14T08:18:13.562Z,19.97
2023-02-14T08:21:00.989Z,22.43
2023-02-14T08:23:47.746Z,21.30
2023-02-14T08:26:34.458Z,22.60
2023-02-14T08:29:22.678Z,22.40
2023-02-14T08:32:09.387Z,25.97
2023-02-14T08:34:56.076Z,24.13
2023-02-14T08:37:42.978Z,28.33
2023-02-14T08:40:29.843Z,25.33
2023-02-14T08:43:16.787Z,25.33
2023-02-14T08:46:05.065Z,25.33
2023-02-14T08:48:53.508Z,28.03
2023-02-14T08:51:39.870Z,21.17
2023-02-14T08:54:26.650Z,22.60
2023-02-14T08:57:15.597Z,27.90
2023-02-14T09:00:02.120Z,21.97
2023-02-14T09:02:53.049Z,26.23
2023-02-14T09:05:39.820Z,28.90
2023-02-14T09:08:26.717Z,24.20
2023-02-14T09:11:15.231Z,24.70
2023-02-14T09:14:01.910Z,24.07
2023-02-14T09:16:48.707Z,32.03
2023-02-14T09:19:38.849Z,25.20
2023-02-14T09:22:25.441Z,28.07
2023-02-14T09:25:12.771Z,29.30
2023-02-14T09:27:59.693Z,31.50
2023-02-14T09:30:46.384Z,33.77
2023-02-14T09:33:33.233Z,29.53
2023-02-14T09:36:21.467Z,33.07
2023-02-14T09:39:07.992Z,30.57
2023-02-14T09:42:16.488Z,26.67
2023-02-14T09:45:08.176Z,33.17
2023-02-14T09:47:58.998Z,28.77
2023-02-14T09:50:50.895Z,40.83
2023-02-14T09:53:45.071Z,42.37
2023-02-14T09:56:51.690Z,35.67
2023-02-14T09:59:50.366Z,29.87
2023-02-14T10:02:43.695Z,31.77
2023-02-14T10:05:33.520Z,39.30
2023-02-14T10:08:39.485Z,48.70
2023-02-14T10:11:29.676Z,35.27
2023-02-14T10:14:21.162Z,31.40
2023-02-14T10:17:11.057Z,31.93
2023-02-14T10:20:02.839Z,33.93
2023-02-14T10:22:56.428Z,30.10
2023-02-14T10:25:48.062Z,35.10
2023-02-14T10:28:41.033Z,35.07
2023-02-14T10:31:31.205Z,35.47
2023-02-14T10:34:23.564Z,50.53
2023-02-14T10:37:25.148Z,41.13
2023-02-14T10:40:36.162Z,39.20
2023-02-14T10:43:35.234Z,34.90
2023-02-14T10:46:34.317Z,36.47
2023-02-14T10:49:34.551Z,37.13
2023-02-14T10:52:26.711Z,32.93
2023-02-14T10:55:31.372Z,29.20
2023-02-14T10:58:21.516Z,32.37
2023-02-14T11:01:12.075Z,32.90
2023-02-14T11:04:04.283Z,29.63
2023-02-14T11:06:51.631Z,29.83
2023-02-14T11:09:38.098Z,34.17
2023-02-14T11:12:37.595Z,32.53
2023-02-14T11:15:28.491Z,31.30
2023-02-14T11:18:23.672Z,31.10
2023-02-14T11:21:14.667Z,31.17
2023-02-14T11:24:01.506Z,35.30
2023-02-14T11:26:50.197Z,36.63
2023-02-14T11:29:45.666Z,39.87
2023-02-14T11:32:37.639Z,36.27
2023-02-14T11:35:30.273Z,31.60
2023-02-14T11:38:30.655Z,29.77
2023-02-14T11:41:18.215Z,35.30
2023-02-14T11:44:22.292Z,35.37
2023-02-14T11:47:27.871Z,31.57
2023-02-14T11:50:23.393Z,36.97
2023-02-14T11:53:13.129Z,30.60
2023-02-14T11:56:01.542Z,73.53
2023-02-14T11:58:54.405Z,35.40
2023-02-14T12:01:41.450Z,39.37
2023-02-14T12:04:38.118Z,37.17
2023-02-14T12:07:32.130Z,36.63
2023-02-14T12:10:22.601Z,34.90
2023-02-14T12:13:26.753Z,34.53
2023-02-14T12:16:22.639Z,35.10
2023-02-14T12:19:18.530Z,40.23
2023-02-14T12:22:07.650Z,28.07
2023-02-14T12:25:03.809Z,36.17
2023-02-14T12:27:54.991Z,35.90
2023-02-14T12:30:42.935Z,36.60
2023-02-14T12:33:29.436Z,37.57
2023-02-14T12:36:29.522Z,33.60
2023-02-14T12:39:27.276Z,60.40
2023-02-14T12:42:26.955Z,45.57
2023-02-14T12:45:20.191Z,59.37
2023-02-14T12:48:22.971Z,43.50
2023-02-14T12:51:15.193Z,40.77
2023-02-14T12:54:18.490Z,45.10
2023-02-14T12:57:14.222Z,40.40
2023-02-14T13:00:15.044Z,39.07
2023-02-14T13:03:32.431Z,38.27
2023-02-14T13:06:27.484Z,36.50
2023-02-14T13:09:34.994Z,39.70
2023-02-14T13:12:35.141Z,43.70
2023-02-14T13:15:30.121Z,36.47
2023-02-14T13:18:27.703Z,35.50
2023-02-14T13:21:19.933Z,31.77
2023-02-14T13:24:18.420Z,49.03
2023-02-14T13:27:08.261Z,40.50
2023-02-14T13:30:01.612Z,38.20
2023-02-14T13:32:56.066Z,33.40
2023-02-14T13:35:43.377Z,41.70
2023-02-14T13:38:33.006Z,40.40
2023-02-14T13:41:22.226Z,45.53
2023-02-14T13:44:13.143Z,43.17
2023-02-14T13:47:00.381Z,57.30
2023-02-14T13:49:54.258Z,36.80
2023-02-14T13:52:47.016Z,34.50
2023-02-14T13:55:37.703Z,40.50
2023-02-14T13:58:25.867Z,36.27
2023-02-14T14:01:31.550Z,34.20
2023-02-14T14:04:38.528Z,32.67
2023-02-14T14:07:30.151Z,44.50
2023-02-14T14:10:46.078Z,35.30
2023-02-14T14:14:02.684Z,33.80
2023-02-14T14:16:59.360Z,39.17
2023-02-14T14:19:47.472Z,38.47
2023-02-14T14:22:47.913Z,35.60
2023-02-14T14:25:37.594Z,37.10
2023-02-14T14:28:27.996Z,40.87
2023-02-14T14:31:15.066Z,40.67
2023-02-14T14:34:02.769Z,37.50
2023-02-14T14:36:49.799Z,41.00
2023-02-14T14:39:39.966Z,41.27
2023-02-14T14:42:30.612Z,38.13
2023-02-14T14:45:24.925Z,40.90
2023-02-14T14:48:14.451Z,46.27
2023-02-14T14:51:01.572Z,39.07
2023-02-14T14:53:51.955Z,41.00
2023-02-14T14:56:47.039Z,36.90
2023-02-14T14:59:35.842Z,38.50
2023-02-14T15:02:26.422Z,39.17
2023-02-14T15:05:26.064Z,39.73
2023-02-14T15:08:17.863Z,39.33
2023-02-14T15:11:13.117Z,38.83
2023-02-14T15:13:59.875Z,36.27
2023-02-14T15:16:49.753Z,33.33
2023-02-14T15:19:41.835Z,41.23
2023-02-14T15:22:31.330Z,40.20
2023-02-14T15:25:21.204Z,38.83
2023-02-14T15:28:07.816Z,41.03
2023-02-14T15:30:59.231Z,36.83
2023-02-14T15:33:46.050Z,36.40
2023-02-14T15:36:36.086Z,38.50
2023-02-14T15:39:28.487Z,42.10
2023-02-14T15:42:25.838Z,35.33
2023-02-14T15:45:17.057Z,38.07
2023-02-14T15:48:09.274Z,32.27
2023-02-14T15:50:59.176Z,39.17
2023-02-14T15:53:52.741Z,32.90
2023-02-14T15:56:45.720Z,34.80
2023-02-14T15:59:34.973Z,40.90
2023-02-14T16:02:31.248Z,36.03
2023-02-14T16:05:20.395Z,35.17
2023-02-14T16:08:24.132Z,39.10
2023-02-14T16:11:16.957Z,38.10
2023-02-14T16:14:21.777Z,36.33
2023-02-14T16:17:13.003Z,35.70
2023-02-14T16:19:59.782Z,40.43
2023-02-14T16:22:46.817Z,37.20
2023-02-14T16:25:33.672Z,29.10
2023-02-14T16:28:22.028Z,33.63
2023-02-14T16:31:12.541Z,42.37
2023-02-14T16:33:59.630Z,44.07
2023-02-14T16:36:46.491Z,44.20
2023-02-14T16:39:33.363Z,37.83
2023-02-14T16:42:20.339Z,41.87
2023-02-14T16:45:15.214Z,49.27
2023-02-14T16:48:01.651Z,35.70
2023-02-14T16:50:48.692Z,44.93
2023-02-14T16:53:36.236Z,35.70
2023-02-14T16:56:27.390Z,36.27
2023-02-14T16:59:14.039Z,42.07
2023-02-14T17:02:02.360Z,38.03
2023-02-14T17:04:48.786Z,34.50
2023-02-14T17:07:35.814Z,41.10
2023-02-14T17:10:22.499Z,41.27
2023-02-14T17:13:10.775Z,41.23
2023-02-14T17:15:58.315Z,37.63
2023-02-14T17:18:49.557Z,43.43
2023-02-14T17:21:36.268Z,38.63
2023-02-14T17:24:22.740Z,46.47
2023-02-14T17:27:09.946Z,45.60
2023-02-14T17:29:56.454Z,45.00
2023-02-14T17:32:43.199Z,47.60
2023-02-14T17:35:31.533Z,48.43
2023-02-14T17:38:20.248Z,80.87
2023-02-14T17:41:14.936Z,73.83
2023-02-14T17:44:02.066Z,64.40
2023-02-14T17:46:48.651Z,53.50
2023-02-14T17:49:35.592Z,48.30
2023-02-14T17:52:24.309Z,40.40
2023-02-14T17:55:11.225Z,49.27
2023-02-14T17:57:58.749Z,47.83
2023-02-14T18:00:45.752Z,48.20
2023-02-14T18:03:32.863Z,47.63
2023-02-14T18:06:19.925Z,44.13
2023-02-14T18:09:08.190Z,46.63
2023-02-14T18:11:55.648Z,44.93
2023-02-14T18:14:42.372Z,45.23
2023-02-14T18:17:29.344Z,36.07
2023-02-14T18:20:16.125Z,33.97
2023-02-14T18:23:07.146Z,41.00
2023-02-14T18:25:57.707Z,40.97
2023-02-14T18:28:44.550Z,40.17
2023-02-14T18:31:31.671Z,42.00
2023-02-14T18:34:18.558Z,37.37
2023-02-14T18:37:06.149Z,35.87
2023-02-14T18:39:52.677Z,33.07
2023-02-14T18:42:40.794Z,37.87
2023-02-14T18:45:27.668Z,33.37
2023-02-14T18:48:14.372Z,46.20
2023-02-14T18:51:06.583Z,34.10
2023-02-14T18:53:54.581Z,47.60
2023-02-14T18:56:41.768Z,37.63
2023-02-14T18:59:29.585Z,38.83
2023-02-14T19:02:16.783Z,50.20
2023-02-14T19:05:04.376Z,47.83
2023-02-14T19:07:55.191Z,42.30
2023-02-14T19:10:41.857Z,41.83
2023-02-14T19:13:29.498Z,39.13
2023-02-14T19:16:20.128Z,41.93
2023-02-14T19:19:06.578Z,47.07
2023-02-14T19:21:53.573Z,47.23
2023-02-14T19:24:40.174Z,44.73
2023-02-14T19:27:26.917Z,48.30
2023-02-14T19:30:14.193Z,44.37
2023-02-14T19:33:02.176Z,51.93
2023-02-14T19:35:50.280Z,53.33
2023-02-14T19:38:36.900Z,86.17
2023-02-14T19:41:26.009Z,52.07
2023-02-14T19:44:14.795Z,52.13
2023-02-14T19:47:05.892Z,53.90
2023-02-14T19:50:00.579Z,43.30
2023-02-14T19:52:47.317Z,57.40
2023-02-14T19:55:34.946Z,50.07
2023-02-14T19:58:21.616Z,52.60
2023-02-14T20:01:08.273Z,51.10
2023-02-14T20:03:55.243Z,47.77
2023-02-14T20:06:43.944Z,45.07
2023-02-14T20:09:30.385Z,41.73
2023-02-14T20:12:17.349Z,48.10
2023-02-14T20:15:05.843Z,43.37
2023-02-14T20:17:53.380Z,49.57
2023-02-14T20:21:05.957Z,43.37
2023-02-14T20:23:54.545Z,41.40
2023-02-14T20:26:42.639Z,37.47
2023-02-14T20:29:29.942Z,46.90
2023-02-14T20:32:17.490Z,45.20
2023-02-14T20:35:04.262Z,50.73
2023-02-14T20:37:52.521Z,44.77
2023-02-14T20:40:42.758Z,43.07
2023-02-14T20:43:29.334Z,44.70
2023-02-14T20:46:16.075Z,43.80
2023-02-14T20:49:03.341Z,45.27
2023-02-14T20:51:51.571Z,40.67
2023-02-14T20:54:39.428Z,42.03
2023-02-14T20:57:27.210Z,45.53
2023-02-14T21:00:15.180Z,50.53
2023-02-14T21:03:01.810Z,45.87
2023-02-14T21:05:49.084Z,44.00
2023-02-14T21:08:36.818Z,39.87
2023-02-14T21:11:25.172Z,39.33
2023-02-14T21:14:13.232Z,43.13
2023-02-14T21:17:00.025Z,41.00
2023-02-14T21:19:46.778Z,44.90
2023-02-14T21:22:33.837Z,44.47
2023-02-14T21:25:23.387Z,44.63
2023-02-14T21:28:10.814Z,36.57
2023-02-14T21:31:05.383Z,41.70
2023-02-14T21:33:53.458Z,31.83
2023-02-14T21:36:40.285Z,32.77
2023-02-14T21:39:27.938Z,41.20
2023-02-14T21:42:17.214Z,47.63
2023-02-14T21:45:22.873Z,35.57
2023-02-14T21:48:33.615Z,41.47
2023-02-14T21:51:20.802Z,40.80
2023-02-14T21:54:07.815Z,40.60
2023-02-14T21:56:54.707Z,38.13
2023-02-14T21:59:41.851Z,35.00
2023-02-14T22:02:28.364Z,36.73
2023-02-14T22:05:16.714Z,42.93
2023-02-14T22:08:03.610Z,39.50
2023-02-14T22:10:50.265Z,40.17
2023-02-14T22:13:37.443Z,38.30
2023-02-14T22:16:27.219Z,39.37
2023-02-14T22:19:16.104Z,40.87
2023-02-14T22:22:04.054Z,41.17
2023-02-14T22:24:50.767Z,37.27
2023-02-14T22:27:40.023Z,44.87
2023-02-14T22:30:26.577Z,37.20
2023-02-14T22:33:13.305Z,38.07
2023-02-14T22:36:01.059Z,34.23
2023-02-14T22:38:49.526Z,34.63
2023-02-14T22:41:38.033Z,44.30
2023-02-14T22:44:25.087Z,35.93
2023-02-14T22:47:12.734Z,32.47
2023-02-14T22:50:01.420Z,38.37
2023-02-14T22:52:49.065Z,35.17
2023-02-14T22:55:38.039Z,44.73
2023-02-14T22:58:26.732Z,44.20
2023-02-14T23:01:18.819Z,43.83
2023-02-14T23:04:07.425Z,44.73
2023-02-14T23:06:56.297Z,44.73
2023-02-14T23:09:43.448Z,41.67
2023-02-14T23:12:49.569Z,40.50
2023-02-14T23:15:54.449Z,39.67
2023-02-14T23:18:59.446Z,43.47
2023-02-14T23:21:58.381Z,43.77
2023-02-14T23:24:46.837Z,46.20
2023-02-14T23:27:37.725Z,44.50
2023-02-14T23:30:24.878Z,41.50
2023-02-14T23:33:11.565Z,47.63
2023-02-14T23:35:58.320Z,44.23
2023-02-14T23:38:45.081Z,51.37
2023-02-14T23:41:49.980Z,45.50
2023-02-14T23:44:38.223Z,51.07
2023-02-14T23:47:24.746Z,44.60
2023-02-14T23:50:16.565Z,44.07
2023-02-14T23:53:05.797Z,49.40
2023-02-14T23:55:53.140Z,41.27
2023-02-14T23:58:40.589Z,48.07
